createdAt,value
2017-08-15T00:00:16.264Z,81.97
2017-08-15T00:00:51.783Z,82.51
2017-08-15T00:01:26.932Z,82.37
2017-08-15T00:02:02.240Z,82.36
2017-08-15T00:02:37.567Z,82.18
2017-08-15T00:03:12.887Z,82.70
2017-08-15T00:03:48.411Z,82.56
2017-08-15T00:04:24.131Z,82.55
2017-08-15T00:04:58.875Z,82.24
2017-08-15T00:05:34.204Z,82.18
2017-08-15T00:06:09.731Z,82.27
2017-08-15T00:06:45.068Z,82.41
2017-08-15T00:07:20.387Z,82.25
2017-08-15T00:07:55.511Z,82.43
2017-08-15T00:08:31.044Z,82.38
2017-08-15T00:09:06.371Z,82.45
2017-08-15T00:09:41.504Z,82.19
2017-08-15T00:10:17.212Z,82.28
2017-08-15T00:10:52.540Z,82.57
2017-08-15T00:11:27.664Z,82.20
2017-08-15T00:12:02.841Z,82.20
2017-08-15T00:12:38.516Z,82.30
2017-08-15T00:13:13.864Z,82.68
2017-08-15T00:13:49.184Z,82.38
2017-08-15T00:14:24.328Z,82.63
2017-08-15T00:14:59.631Z,82.61
2017-08-15T00:15:34.970Z,82.90
2017-08-15T00:16:10.312Z,82.36
2017-08-15T00:16:45.643Z,82.49
2017-08-15T00:17:20.972Z,82.42
2017-08-15T00:17:56.279Z,82.78
2017-08-15T00:18:31.596Z,82.61
2017-08-15T00:19:07.130Z,82.61
2017-08-15T00:19:46.948Z,82.83
2017-08-15T00:20:21.315Z,82.82
2017-08-15T00:20:56.664Z,82.67
2017-08-15T00:21:31.792Z,82.60
2017-08-15T00:22:07.327Z,82.58
2017-08-15T00:22:42.680Z,82.55
2017-08-15T00:23:17.959Z,82.67
2017-08-15T00:23:53.100Z,82.59
2017-08-15T00:24:28.856Z,82.81
2017-08-15T00:25:03.928Z,82.39
2017-08-15T00:25:39.280Z,82.44
2017-08-15T00:26:14.596Z,82.98
2017-08-15T00:26:50.116Z,82.73
2017-08-15T00:27:25.662Z,82.58
2017-08-15T00:28:00.587Z,82.87
2017-08-15T00:28:35.725Z,82.93
2017-08-15T00:29:11.240Z,82.95
2017-08-15T00:29:46.568Z,82.53
2017-08-15T00:30:22.082Z,82.74
2017-08-15T00:30:57.419Z,82.57
2017-08-15T00:31:32.540Z,82.72
2017-08-15T00:32:07.680Z,83.11
2017-08-15T00:32:43.212Z,82.86
2017-08-15T00:33:18.527Z,83.12
2017-08-15T00:33:54.051Z,82.97
2017-08-15T00:34:29.191Z,83.03
2017-08-15T00:35:04.707Z,82.69
2017-08-15T00:35:39.648Z,82.66
2017-08-15T00:36:15.564Z,83.08
2017-08-15T00:36:50.483Z,82.89
2017-08-15T00:37:25.854Z,82.98
2017-08-15T00:38:01.151Z,82.86
2017-08-15T00:38:36.871Z,82.98
2017-08-15T00:39:11.983Z,82.61
2017-08-15T00:39:47.331Z,82.90
2017-08-15T00:40:22.468Z,83.27
2017-08-15T00:40:57.984Z,83.03
2017-08-15T00:41:33.112Z,82.91
2017-08-15T00:42:08.436Z,82.88
2017-08-15T00:42:43.999Z,83.08
2017-08-15T00:43:18.911Z,83.16
2017-08-15T00:43:55.015Z,83.01
2017-08-15T00:44:29.748Z,82.98
2017-08-15T00:45:05.284Z,82.96
2017-08-15T00:45:40.411Z,83.01
2017-08-15T00:46:15.547Z,82.92
2017-08-15T00:46:51.097Z,83.34
2017-08-15T00:47:26.396Z,83.33
2017-08-15T00:48:01.945Z,83.19
2017-08-15T00:48:38.647Z,83.01
2017-08-15T00:49:14.368Z,83.07
2017-08-15T00:49:49.499Z,83.12
2017-08-15T00:50:24.631Z,83.51
2017-08-15T00:50:59.952Z,83.07
2017-08-15T00:51:35.291Z,83.42
2017-08-15T00:52:12.021Z,83.45
2017-08-15T00:52:47.543Z,83.20
2017-08-15T00:53:23.255Z,83.45
2017-08-15T00:53:58.387Z,83.42
2017-08-15T00:54:33.512Z,83.40
2017-08-15T00:55:08.652Z,83.57
2017-08-15T00:55:44.756Z,83.33
2017-08-15T00:56:19.503Z,83.76
2017-08-15T00:56:54.831Z,83.49
2017-08-15T00:57:30.349Z,83.64
2017-08-15T00:58:05.316Z,83.26
2017-08-15T00:58:40.812Z,83.61
2017-08-15T00:59:16.143Z,83.48
2017-08-15T00:59:51.463Z,83.68
2017-08-15T01:00:26.614Z,83.47
2017-08-15T01:01:02.132Z,83.30
2017-08-15T01:01:37.251Z,83.79
2017-08-15T01:02:14.363Z,83.67
2017-08-15T01:02:49.931Z,83.68
2017-08-15T01:03:25.226Z,83.69
2017-08-15T01:04:00.359Z,83.51
2017-08-15T01:04:35.672Z,83.70
2017-08-15T01:05:11.015Z,83.84
2017-08-15T01:05:46.146Z,84.03
2017-08-15T01:06:21.675Z,83.99
2017-08-15T01:06:56.993Z,83.54
2017-08-15T01:07:32.519Z,83.90
2017-08-15T01:08:07.665Z,84.04
2017-08-15T01:08:42.985Z,83.89
2017-08-15T01:09:18.296Z,83.53
2017-08-15T01:09:53.835Z,83.76
2017-08-15T01:10:28.769Z,83.88
2017-08-15T01:11:04.484Z,83.61
2017-08-15T01:11:39.807Z,83.74
2017-08-15T01:12:14.947Z,83.91
2017-08-15T01:12:50.476Z,84.11
2017-08-15T01:13:25.614Z,84.10
2017-08-15T01:14:01.320Z,84.16
2017-08-15T01:14:36.066Z,83.92
2017-08-15T01:15:11.391Z,84.03
2017-08-15T01:15:47.108Z,83.91
2017-08-15T01:16:22.236Z,83.51
2017-08-15T01:16:57.559Z,83.82
2017-08-15T01:17:33.108Z,83.93
2017-08-15T01:18:08.811Z,84.02
2017-08-15T01:18:56.911Z,83.82
2017-08-15T01:19:31.943Z,83.76
2017-08-15T01:20:08.451Z,84.22
2017-08-15T01:20:42.800Z,83.91
2017-08-15T01:21:18.136Z,83.69
2017-08-15T01:21:53.452Z,83.79
2017-08-15T01:22:29.187Z,84.03
2017-08-15T01:23:03.916Z,84.13
2017-08-15T01:23:39.263Z,84.17
2017-08-15T01:24:14.960Z,84.17
2017-08-15T01:24:50.312Z,83.99
2017-08-15T01:25:25.613Z,84.11
2017-08-15T01:26:00.952Z,83.91
2017-08-15T01:26:36.291Z,84.09
2017-08-15T01:27:11.805Z,83.71
2017-08-15T01:27:46.943Z,84.04
2017-08-15T01:28:21.906Z,83.75
2017-08-15T01:28:57.618Z,84.20
2017-08-15T01:29:32.923Z,83.97
2017-08-15T01:30:08.463Z,83.87
2017-08-15T01:30:43.199Z,84.04
2017-08-15T01:32:00.247Z,84.26
2017-08-15T01:32:35.955Z,84.00
2017-08-15T01:33:11.492Z,84.09
2017-08-15T01:33:46.420Z,84.21
2017-08-15T01:34:28.179Z,83.88
2017-08-15T01:35:03.306Z,83.66
2017-08-15T01:35:39.207Z,83.77
2017-08-15T01:36:14.525Z,84.25
2017-08-15T01:36:49.658Z,83.87
2017-08-15T01:37:25.013Z,83.89
2017-08-15T01:38:04.908Z,83.83
2017-08-15T01:38:40.450Z,84.19
2017-08-15T01:39:15.415Z,84.08
2017-08-15T01:39:51.303Z,83.98
2017-08-15T01:40:26.034Z,83.98
2017-08-15T01:41:01.571Z,84.11
2017-08-15T01:41:37.458Z,83.93
2017-08-15T01:42:12.028Z,84.46
2017-08-15T01:42:47.735Z,84.28
2017-08-15T01:43:23.082Z,84.01
2017-08-15T01:43:58.052Z,84.23
2017-08-15T01:44:33.353Z,84.25
2017-08-15T01:45:08.661Z,84.07
2017-08-15T01:45:43.991Z,84.09
2017-08-15T01:46:19.720Z,84.19
2017-08-15T01:46:54.648Z,84.13
2017-08-15T01:47:29.976Z,84.17
2017-08-15T01:48:05.508Z,84.10
2017-08-15T01:48:40.820Z,83.97
2017-08-15T01:49:16.590Z,84.30
2017-08-15T01:49:51.291Z,84.12
2017-08-15T01:50:26.651Z,84.04
2017-08-15T01:51:02.336Z,84.07
2017-08-15T01:51:37.280Z,84.43
2017-08-15T01:52:12.603Z,84.11
2017-08-15T01:52:48.127Z,84.35
2017-08-15T01:53:27.164Z,84.32
2017-08-15T01:54:06.898Z,84.16
2017-08-15T01:54:41.436Z,84.05
2017-08-15T01:55:17.228Z,84.17
2017-08-15T01:55:52.287Z,84.03
2017-08-15T01:56:27.416Z,84.21
2017-08-15T01:57:02.935Z,84.19
2017-08-15T01:57:38.250Z,84.08
2017-08-15T01:58:13.207Z,83.99
2017-08-15T01:58:48.741Z,84.19
2017-08-15T01:59:24.048Z,84.07
2017-08-15T01:59:59.643Z,84.03
2017-08-15T02:00:34.508Z,84.18
2017-08-15T02:01:10.239Z,84.01
2017-08-15T02:01:45.764Z,84.41
2017-08-15T02:02:21.095Z,84.09
2017-08-15T02:02:56.416Z,84.06
2017-08-15T02:03:31.353Z,84.09
2017-08-15T02:04:06.691Z,84.29
2017-08-15T02:04:42.023Z,84.10
2017-08-15T02:05:17.142Z,84.24
2017-08-15T02:05:52.472Z,84.39
2017-08-15T02:06:27.807Z,84.15
2017-08-15T02:07:03.319Z,84.39
2017-08-15T02:07:38.839Z,84.33
2017-08-15T02:08:15.019Z,84.29
2017-08-15T02:08:49.300Z,84.18
2017-08-15T02:09:24.839Z,84.29
2017-08-15T02:09:59.967Z,84.41
2017-08-15T02:10:35.308Z,84.33
2017-08-15T02:11:10.448Z,84.59
2017-08-15T02:11:46.130Z,84.36
2017-08-15T02:12:21.479Z,84.34
2017-08-15T02:12:56.412Z,84.38
2017-08-15T02:13:32.723Z,84.24
2017-08-15T02:14:07.072Z,84.43
2017-08-15T02:14:42.591Z,84.39
2017-08-15T02:15:17.771Z,84.36
2017-08-15T02:15:53.438Z,84.41
2017-08-15T02:16:28.762Z,84.31
2017-08-15T02:17:03.904Z,84.62
2017-08-15T02:17:39.223Z,84.66
2017-08-15T02:18:14.388Z,84.70
2017-08-15T02:18:49.897Z,84.61
2017-08-15T02:19:25.420Z,84.63
2017-08-15T02:20:00.572Z,84.63
2017-08-15T02:20:36.420Z,84.78
2017-08-15T02:21:11.404Z,84.64
2017-08-15T02:21:47.118Z,84.41
2017-08-15T02:22:22.055Z,84.60
2017-08-15T02:22:57.190Z,84.55
2017-08-15T02:23:32.515Z,84.39
2017-08-15T02:24:07.847Z,84.77
2017-08-15T02:24:43.373Z,84.33
2017-08-15T02:25:18.523Z,84.45
2017-08-15T02:25:54.031Z,84.65
2017-08-15T02:26:28.959Z,84.54
2017-08-15T02:27:04.300Z,84.55
2017-08-15T02:27:40.000Z,84.38
2017-08-15T02:28:15.391Z,84.77
2017-08-15T02:28:51.051Z,85.01
2017-08-15T02:29:26.011Z,84.57
2017-08-15T02:30:01.764Z,84.64
2017-08-15T02:30:36.451Z,84.54
2017-08-15T02:31:12.182Z,84.63
2017-08-15T02:31:46.971Z,84.72
2017-08-15T02:32:22.273Z,84.88
2017-08-15T02:32:58.167Z,84.77
2017-08-15T02:33:33.127Z,84.71
2017-08-15T02:34:08.429Z,84.80
2017-08-15T02:34:43.787Z,84.57
2017-08-15T02:35:18.920Z,84.91
2017-08-15T02:35:54.231Z,84.74
2017-08-15T02:36:29.555Z,84.69
2017-08-15T02:37:05.067Z,84.88
2017-08-15T02:37:40.212Z,84.76
2017-08-15T02:38:15.539Z,84.84
2017-08-15T02:38:57.464Z,84.71
2017-08-15T02:39:32.791Z,84.70
2017-08-15T02:40:07.940Z,84.94
2017-08-15T02:40:43.656Z,84.99
2017-08-15T02:41:18.964Z,84.67
2017-08-15T02:41:53.915Z,84.60
2017-08-15T02:42:29.252Z,84.76
2017-08-15T02:43:04.556Z,84.81
2017-08-15T02:43:40.095Z,84.65
2017-08-15T02:44:15.419Z,84.88
2017-08-15T02:44:50.751Z,84.95
2017-08-15T02:45:25.912Z,85.04
2017-08-15T02:46:01.201Z,84.96
2017-08-15T02:46:36.734Z,85.07
2017-08-15T02:47:12.072Z,84.98
2017-08-15T02:47:47.596Z,85.06
2017-08-15T02:48:23.131Z,85.14
2017-08-15T02:48:58.449Z,84.85
2017-08-15T02:49:33.979Z,84.84
2017-08-15T02:50:13.168Z,85.03
2017-08-15T02:50:48.280Z,85.13
2017-08-15T02:51:23.221Z,84.79
2017-08-15T02:51:58.919Z,85.12
2017-08-15T02:52:33.476Z,85.01
2017-08-15T02:53:08.797Z,84.98
2017-08-15T02:53:44.528Z,85.17
2017-08-15T02:54:20.018Z,85.10
2017-08-15T02:54:55.178Z,85.14
2017-08-15T02:55:30.495Z,84.94
2017-08-15T02:56:06.055Z,85.10
2017-08-15T02:56:40.963Z,85.01
2017-08-15T02:57:17.074Z,85.08
2017-08-15T02:57:51.440Z,84.94
2017-08-15T02:58:27.151Z,85.18
2017-08-15T02:59:02.485Z,85.23
2017-08-15T02:59:38.364Z,85.30
2017-08-15T03:00:12.943Z,85.23
2017-08-15T03:00:48.080Z,85.06
2017-08-15T03:01:23.619Z,84.87
2017-08-15T03:01:58.927Z,85.26
2017-08-15T03:02:34.451Z,85.24
2017-08-15T03:03:09.405Z,85.08
2017-08-15T03:03:45.104Z,85.01
2017-08-15T03:04:20.635Z,85.18
2017-08-15T03:04:59.084Z,85.06
2017-08-15T03:05:34.559Z,85.16
2017-08-15T03:06:20.667Z,84.88
2017-08-15T03:06:55.352Z,85.09
2017-08-15T03:07:30.471Z,84.95
2017-08-15T03:08:06.199Z,85.27
2017-08-15T03:08:41.322Z,85.21
2017-08-15T03:09:16.659Z,85.28
2017-08-15T03:09:51.784Z,84.97
2017-08-15T03:10:27.124Z,85.24
2017-08-15T03:11:02.644Z,85.27
2017-08-15T03:11:37.796Z,85.27
2017-08-15T03:12:13.301Z,85.28
2017-08-15T03:12:48.672Z,85.07
2017-08-15T03:13:24.154Z,85.24
2017-08-15T03:13:59.687Z,85.24
2017-08-15T03:14:34.616Z,85.28
2017-08-15T03:15:10.141Z,85.05
2017-08-15T03:15:45.279Z,85.21
2017-08-15T03:16:20.638Z,85.29
2017-08-15T03:16:55.934Z,84.95
2017-08-15T03:17:31.664Z,85.48
2017-08-15T03:18:12.668Z,85.36
2017-08-15T03:18:47.747Z,85.36
2017-08-15T03:19:23.099Z,85.10
2017-08-15T03:19:57.838Z,85.02
2017-08-15T03:20:33.547Z,85.10
2017-08-15T03:21:08.307Z,84.98
2017-08-15T03:21:44.427Z,85.07
2017-08-15T03:22:19.920Z,85.17
2017-08-15T03:22:54.688Z,85.20
2017-08-15T03:23:30.432Z,85.21
2017-08-15T03:24:05.531Z,84.88
2017-08-15T03:24:40.463Z,85.18
2017-08-15T03:25:16.176Z,85.20
2017-08-15T03:25:51.348Z,85.17
2017-08-15T03:26:26.652Z,85.29
2017-08-15T03:27:02.391Z,85.11
2017-08-15T03:27:37.739Z,85.33
2017-08-15T03:28:12.836Z,85.38
2017-08-15T03:28:47.971Z,85.26
2017-08-15T03:29:23.721Z,85.36
2017-08-15T03:29:58.423Z,85.45
2017-08-15T03:30:33.941Z,85.26
2017-08-15T03:31:09.072Z,85.51
2017-08-15T03:31:44.450Z,85.18
2017-08-15T03:32:20.132Z,85.24
2017-08-15T03:32:54.875Z,85.14
2017-08-15T03:33:30.389Z,85.15
2017-08-15T03:34:06.111Z,85.50
2017-08-15T03:34:41.264Z,85.28
2017-08-15T03:35:16.963Z,85.57
2017-08-15T03:35:52.107Z,85.39
2017-08-15T03:36:27.035Z,85.18
2017-08-15T03:37:08.269Z,85.33
2017-08-15T03:37:43.148Z,85.37
2017-08-15T03:38:18.457Z,85.35
2017-08-15T03:38:53.888Z,85.57
2017-08-15T03:39:28.739Z,85.41
2017-08-15T03:40:04.644Z,85.31
2017-08-15T03:40:40.163Z,85.58
2017-08-15T03:41:19.611Z,85.52
2017-08-15T03:41:54.096Z,85.57
2017-08-15T03:42:29.433Z,85.53
2017-08-15T03:43:04.556Z,85.50
2017-08-15T03:43:40.269Z,85.35
2017-08-15T03:44:15.011Z,85.64
2017-08-15T03:44:50.939Z,85.63
2017-08-15T03:45:26.063Z,85.47
2017-08-15T03:46:01.596Z,85.44
2017-08-15T03:46:36.352Z,85.58
2017-08-15T03:47:12.059Z,85.47
2017-08-15T03:47:47.179Z,85.61
2017-08-15T03:48:22.335Z,85.55
2017-08-15T03:48:57.837Z,85.38
2017-08-15T03:49:33.572Z,85.55
2017-08-15T03:50:08.703Z,85.52
2017-08-15T03:50:44.025Z,85.62
2017-08-15T03:51:27.348Z,85.40
2017-08-15T03:52:03.136Z,85.43
2017-08-15T03:52:38.459Z,85.51
2017-08-15T03:53:14.184Z,85.41
2017-08-15T03:53:48.923Z,85.35
2017-08-15T03:54:33.335Z,85.57
2017-08-15T03:55:08.035Z,85.63
2017-08-15T03:55:43.367Z,85.58
2017-08-15T03:56:18.735Z,85.37
2017-08-15T03:56:54.027Z,85.40
2017-08-15T03:57:29.171Z,85.63
2017-08-15T03:58:04.471Z,85.47
2017-08-15T03:58:39.987Z,85.71
2017-08-15T03:59:15.519Z,85.41
2017-08-15T03:59:51.066Z,85.52
2017-08-15T04:00:26.575Z,85.48
2017-08-15T04:01:01.335Z,85.57
2017-08-15T04:01:37.275Z,85.47
2017-08-15T04:02:11.775Z,85.68
2017-08-15T04:02:47.317Z,85.45
2017-08-15T04:03:22.844Z,85.67
2017-08-15T04:03:58.182Z,85.80
2017-08-15T04:04:33.503Z,85.42
2017-08-15T04:05:08.427Z,85.62
2017-08-15T04:05:44.159Z,85.48
2017-08-15T04:06:19.535Z,85.81
2017-08-15T04:06:54.435Z,85.90
2017-08-15T04:07:42.331Z,85.59
2017-08-15T04:08:17.311Z,85.65
2017-08-15T04:08:52.063Z,85.69
2017-08-15T04:09:27.395Z,85.95
2017-08-15T04:10:03.291Z,85.64
2017-08-15T04:10:39.011Z,85.97
2017-08-15T04:11:13.548Z,85.68
2017-08-15T04:11:48.876Z,85.93
2017-08-15T04:12:24.021Z,85.92
2017-08-15T04:12:59.563Z,85.98
2017-08-15T04:13:35.252Z,85.95
2017-08-15T04:14:10.595Z,85.85
2017-08-15T04:14:53.816Z,85.66
2017-08-15T04:15:29.704Z,85.68
2017-08-15T04:16:05.219Z,85.96
2017-08-15T04:16:40.155Z,85.68
2017-08-15T04:17:16.478Z,85.82
2017-08-15T04:17:51.211Z,85.99
2017-08-15T04:18:26.532Z,85.74
2017-08-15T04:19:01.284Z,85.77
2017-08-15T04:19:36.599Z,85.92
2017-08-15T04:20:12.340Z,86.00
2017-08-15T04:20:47.844Z,85.97
2017-08-15T04:21:23.396Z,86.08
2017-08-15T04:21:58.320Z,85.90
2017-08-15T04:22:33.842Z,85.92
2017-08-15T04:23:09.180Z,86.03
2017-08-15T04:23:44.501Z,86.27
2017-08-15T04:24:19.634Z,86.16
2017-08-15T04:24:54.781Z,86.15
2017-08-15T04:25:30.088Z,86.21
2017-08-15T04:26:11.307Z,86.31
2017-08-15T04:26:45.896Z,86.81
2017-08-15T04:27:21.415Z,86.08
2017-08-15T04:27:56.388Z,86.13
2017-08-15T04:28:31.879Z,86.39
2017-08-15T04:29:07.024Z,86.39
2017-08-15T04:29:42.336Z,86.21
2017-08-15T04:30:17.888Z,86.18
2017-08-15T04:30:53.395Z,86.39
2017-08-15T04:31:34.602Z,86.42
2017-08-15T04:32:09.503Z,86.24
2017-08-15T04:32:53.207Z,86.31
2017-08-15T04:33:28.615Z,86.26
2017-08-15T04:34:03.747Z,86.34
2017-08-15T04:34:38.883Z,86.13
2017-08-15T04:35:14.195Z,86.40
2017-08-15T04:35:50.128Z,86.04
2017-08-15T04:36:24.871Z,86.35
2017-08-15T04:37:00.376Z,86.23
2017-08-15T04:37:35.330Z,86.05
2017-08-15T04:38:10.891Z,86.02
2017-08-15T04:38:47.247Z,86.35
2017-08-15T04:39:21.312Z,86.41
2017-08-15T04:39:56.839Z,86.09
2017-08-15T04:40:31.964Z,86.44
2017-08-15T04:41:07.491Z,86.23
2017-08-15T04:41:43.002Z,86.41
2017-08-15T04:42:18.133Z,86.44
2017-08-15T04:42:53.684Z,86.47
2017-08-15T04:43:29.215Z,86.22
2017-08-15T04:44:04.136Z,86.38
2017-08-15T04:44:39.451Z,86.48
2017-08-15T04:45:15.181Z,86.38
2017-08-15T04:45:50.592Z,87.10
2017-08-15T04:46:25.631Z,86.38
2017-08-15T04:47:00.956Z,86.35
2017-08-15T04:47:36.698Z,86.42
2017-08-15T04:48:12.408Z,86.38
2017-08-15T04:48:46.784Z,86.47
2017-08-15T04:49:22.080Z,86.79
2017-08-15T04:49:57.800Z,86.62
2017-08-15T04:50:39.332Z,86.82
2017-08-15T04:51:14.166Z,86.86
2017-08-15T04:51:48.851Z,86.81
2017-08-15T04:52:23.967Z,86.73
2017-08-15T04:52:59.117Z,86.93
2017-08-15T04:53:34.440Z,86.98
2017-08-15T04:54:10.175Z,86.87
2017-08-15T04:54:51.664Z,86.88
2017-08-15T04:55:27.598Z,86.85
2017-08-15T04:56:59.894Z,87.12
2017-08-15T04:57:35.459Z,87.10
2017-08-15T04:58:10.811Z,87.17
2017-08-15T04:58:45.531Z,87.07
2017-08-15T04:59:20.883Z,87.05
2017-08-15T04:59:56.588Z,87.22
2017-08-15T05:00:32.150Z,87.16
2017-08-15T05:01:07.048Z,87.13
2017-08-15T05:01:42.363Z,87.01
2017-08-15T05:02:17.512Z,87.15
2017-08-15T05:02:53.037Z,87.11
2017-08-15T05:03:27.988Z,86.90
2017-08-15T05:04:03.711Z,86.90
2017-08-15T05:04:39.014Z,86.96
2017-08-15T05:05:14.144Z,86.97
2017-08-15T05:05:50.111Z,86.95
2017-08-15T05:06:25.003Z,86.70
2017-08-15T05:07:00.131Z,86.90
2017-08-15T05:07:35.288Z,86.90
2017-08-15T05:08:11.283Z,86.64
2017-08-15T05:08:45.924Z,86.64
2017-08-15T05:09:21.663Z,86.62
2017-08-15T05:09:56.599Z,86.62
2017-08-15T05:10:32.119Z,86.57
2017-08-15T05:11:07.448Z,86.55
2017-08-15T05:11:42.976Z,86.54
2017-08-15T05:12:18.100Z,86.52
2017-08-15T05:12:53.625Z,86.59
2017-08-15T05:13:28.576Z,86.43
2017-08-15T05:14:04.104Z,86.64
2017-08-15T05:14:39.822Z,86.63
2017-08-15T05:15:14.942Z,86.62
2017-08-15T05:15:50.271Z,86.59
2017-08-15T05:16:25.215Z,86.59
2017-08-15T05:17:00.539Z,86.60
2017-08-15T05:17:36.054Z,86.68
2017-08-15T05:18:11.396Z,86.91
2017-08-15T05:18:51.236Z,86.72
2017-08-15T05:19:25.611Z,86.79
2017-08-15T05:20:00.927Z,86.89
2017-08-15T05:20:36.255Z,86.98
2017-08-15T05:21:11.576Z,86.91
2017-08-15T05:21:46.907Z,86.94
2017-08-15T05:22:22.245Z,86.92
2017-08-15T05:22:57.571Z,86.99
2017-08-15T05:23:32.907Z,86.84
2017-08-15T05:24:08.234Z,86.98
2017-08-15T05:24:43.589Z,86.96
2017-08-15T05:25:18.908Z,86.97
2017-08-15T05:25:54.231Z,87.10
2017-08-15T05:26:29.560Z,87.02
2017-08-15T05:27:04.889Z,87.33
2017-08-15T05:27:40.220Z,87.31
2017-08-15T05:28:15.545Z,87.28
2017-08-15T05:28:50.885Z,87.37
2017-08-15T05:29:26.215Z,87.73
2017-08-15T05:30:14.711Z,87.67
2017-08-15T05:31:08.297Z,87.55
2017-08-15T05:31:42.470Z,87.31
2017-08-15T05:32:17.812Z,87.37
2017-08-15T05:32:53.143Z,87.57
2017-08-15T05:33:28.469Z,87.56
2017-08-15T05:34:03.796Z,87.63
2017-08-15T05:34:39.127Z,87.59
2017-08-15T05:35:14.479Z,87.66
2017-08-15T05:35:49.784Z,87.62
2017-08-15T05:36:25.121Z,87.78
2017-08-15T05:37:00.455Z,87.64
2017-08-15T05:37:35.803Z,87.96
2017-08-15T05:38:11.130Z,87.81
2017-08-15T05:38:57.644Z,87.84
2017-08-15T05:39:32.972Z,88.04
2017-08-15T05:40:08.327Z,87.96
2017-08-15T05:40:43.639Z,87.96
2017-08-15T05:41:18.975Z,88.00
2017-08-15T05:41:54.309Z,87.95
2017-08-15T05:42:29.639Z,87.94
2017-08-15T05:43:04.964Z,87.78
2017-08-15T05:43:40.295Z,87.94
2017-08-15T05:44:18.836Z,88.07
2017-08-15T05:45:03.779Z,87.90
2017-08-15T05:45:39.091Z,87.69
2017-08-15T05:46:14.432Z,87.79
2017-08-15T05:46:49.775Z,87.89
2017-08-15T05:47:25.084Z,87.90
2017-08-15T05:48:00.412Z,87.89
2017-08-15T05:48:35.745Z,87.79
2017-08-15T05:49:11.095Z,87.58
2017-08-15T05:49:48.036Z,87.91
2017-08-15T05:50:29.764Z,87.76
2017-08-15T05:51:11.475Z,87.79
2017-08-15T05:51:46.801Z,87.76
2017-08-15T05:52:22.131Z,87.75
2017-08-15T05:52:57.456Z,87.83
2017-08-15T05:53:32.787Z,87.62
2017-08-15T05:54:08.128Z,87.71
2017-08-15T05:54:48.261Z,87.85
2017-08-15T05:55:23.612Z,87.92
2017-08-15T05:55:58.924Z,87.69
2017-08-15T05:56:34.252Z,87.87
2017-08-15T05:57:09.587Z,87.40
2017-08-15T05:57:44.911Z,87.50
2017-08-15T05:58:20.254Z,87.59
2017-08-15T05:58:55.576Z,87.75
2017-08-15T05:59:30.920Z,87.45
2017-08-15T06:00:06.247Z,87.80
2017-08-15T06:00:41.592Z,87.43
2017-08-15T06:01:16.908Z,87.44
2017-08-15T06:01:52.235Z,87.50
2017-08-15T06:02:27.571Z,87.51
2017-08-15T06:03:04.495Z,87.37
2017-08-15T06:03:44.644Z,86.89
2017-08-15T06:04:19.956Z,87.39
2017-08-15T06:04:55.291Z,87.15
2017-08-15T06:05:30.627Z,86.99
2017-08-15T06:06:05.952Z,87.34
2017-08-15T06:06:41.276Z,87.38
2017-08-15T06:07:16.611Z,87.45
2017-08-15T06:07:51.940Z,87.32
2017-08-15T06:08:27.271Z,87.27
2017-08-15T06:09:02.610Z,87.45
2017-08-15T06:09:37.945Z,87.21
2017-08-15T06:10:13.268Z,87.12
2017-08-15T06:10:48.623Z,87.03
2017-08-15T06:11:23.927Z,87.14
2017-08-15T06:11:59.256Z,87.33
2017-08-15T06:12:34.596Z,87.20
2017-08-15T06:13:09.921Z,87.04
2017-08-15T06:13:45.251Z,87.28
2017-08-15T06:14:20.580Z,87.22
2017-08-15T06:14:55.912Z,86.98
2017-08-15T06:15:31.232Z,87.29
2017-08-15T06:16:06.575Z,86.92
2017-08-15T06:16:41.900Z,87.06
2017-08-15T06:17:23.633Z,86.87
2017-08-15T06:17:58.960Z,87.05
2017-08-15T06:18:34.287Z,86.82
2017-08-15T06:19:09.619Z,86.68
2017-08-15T06:19:44.959Z,86.64
2017-08-15T06:20:20.279Z,86.68
2017-08-15T06:21:05.240Z,86.70
2017-08-15T06:21:40.662Z,86.64
2017-08-15T06:22:15.923Z,86.87
2017-08-15T06:22:51.203Z,86.57
2017-08-15T06:23:26.571Z,86.77
2017-08-15T06:24:01.871Z,86.59
2017-08-15T06:24:37.221Z,86.35
2017-08-15T06:25:12.532Z,86.50
2017-08-15T06:25:48.907Z,86.48
2017-08-15T06:26:23.207Z,86.57
2017-08-15T06:26:58.654Z,86.58
2017-08-15T06:27:33.848Z,86.52
2017-08-15T06:28:09.431Z,86.55
2017-08-15T06:28:44.523Z,86.65
2017-08-15T06:29:19.925Z,86.53
2017-08-15T06:29:55.344Z,87.08
2017-08-15T06:30:30.509Z,86.58
2017-08-15T06:31:05.981Z,86.67
2017-08-15T06:31:41.179Z,86.59
2017-08-15T06:32:16.508Z,86.54
2017-08-15T06:32:51.836Z,86.87
2017-08-15T06:33:27.166Z,86.61
2017-08-15T06:34:05.692Z,86.59
2017-08-15T06:34:41.031Z,86.68
2017-08-15T06:35:16.360Z,86.59
2017-08-15T06:35:51.688Z,86.19
2017-08-15T06:36:27.048Z,86.22
2017-08-15T06:37:02.345Z,86.52
2017-08-15T06:37:37.681Z,86.29
2017-08-15T06:38:13.004Z,86.57
2017-08-15T06:38:48.349Z,86.37
2017-08-15T06:39:23.663Z,86.69
2017-08-15T06:39:58.995Z,86.83
2017-08-15T06:40:34.439Z,86.74
2017-08-15T06:41:09.652Z,86.47
2017-08-15T06:41:45.013Z,86.73
2017-08-15T06:42:20.328Z,86.59
2017-08-15T06:42:55.647Z,86.37
2017-08-15T06:43:30.980Z,86.12
2017-08-15T06:44:15.912Z,86.42
2017-08-15T06:44:52.856Z,86.31
2017-08-15T06:45:37.781Z,86.04
2017-08-15T06:46:13.107Z,86.24
2017-08-15T06:46:48.458Z,85.81
2017-08-15T06:47:23.758Z,85.69
2017-08-15T06:48:31.647Z,85.92
2017-08-15T06:49:06.302Z,85.69
2017-08-15T06:49:46.427Z,85.99
2017-08-15T06:50:21.764Z,86.11
2017-08-15T06:51:06.693Z,85.76
2017-08-15T06:51:42.037Z,85.78
2017-08-15T06:52:17.357Z,85.50
2017-08-15T06:52:52.680Z,85.52
2017-08-15T06:53:39.215Z,85.55
2017-08-15T06:54:22.544Z,85.27
2017-08-15T06:54:57.880Z,85.30
2017-08-15T06:55:33.208Z,85.27
2017-08-15T06:56:08.533Z,85.11
2017-08-15T06:57:06.292Z,85.20
2017-08-15T06:57:41.596Z,85.29
2017-08-15T06:58:16.923Z,85.06
2017-08-15T06:58:52.246Z,85.02
2017-08-15T06:59:27.575Z,84.91
2017-08-15T07:00:17.319Z,85.01
2017-08-15T07:01:02.249Z,85.37
2017-08-15T07:02:00.006Z,84.94
2017-08-15T07:02:35.301Z,85.11
2017-08-15T07:03:10.643Z,85.06
2017-08-15T07:04:14.777Z,84.79
2017-08-15T07:04:50.096Z,84.74
2017-08-15T07:05:25.432Z,84.68
2017-08-15T07:06:00.759Z,84.98
2017-08-15T07:06:36.097Z,84.80
2017-08-15T07:07:14.644Z,84.73
2017-08-15T07:07:49.962Z,84.81
2017-08-15T07:08:25.288Z,84.61
2017-08-15T07:09:13.424Z,84.83
2017-08-15T07:09:48.752Z,84.82
2017-08-15T07:10:27.292Z,84.76
2017-08-15T07:11:02.609Z,84.59
2017-08-15T07:11:37.954Z,84.62
2017-08-15T07:12:13.283Z,84.62
2017-08-15T07:12:48.615Z,84.20
2017-08-15T07:13:23.945Z,84.34
2017-08-15T07:13:59.272Z,83.81
2017-08-15T07:14:34.607Z,84.08
2017-08-15T07:15:09.932Z,84.26
2017-08-15T07:15:53.268Z,83.85
2017-08-15T07:16:28.594Z,84.12
2017-08-15T07:17:03.935Z,84.29
2017-08-15T07:17:39.272Z,83.73
2017-08-15T07:18:20.992Z,84.17
2017-08-15T07:18:56.324Z,83.92
2017-08-15T07:19:31.647Z,84.04
2017-08-15T07:20:06.980Z,84.26
2017-08-15T07:20:42.320Z,84.18
2017-08-15T07:21:17.643Z,83.40
2017-08-15T07:21:52.988Z,83.44
2017-08-15T07:22:28.340Z,83.92
2017-08-15T07:23:03.646Z,83.55
2017-08-15T07:23:38.969Z,83.18
2017-08-15T07:24:41.509Z,83.28
2017-08-15T07:25:16.832Z,82.80
2017-08-15T07:25:52.168Z,83.04
2017-08-15T07:26:33.904Z,82.75
2017-08-15T07:27:09.236Z,83.12
2017-08-15T07:27:44.580Z,82.51
2017-08-15T07:28:19.896Z,82.79
2017-08-15T07:28:55.237Z,82.25
2017-08-15T07:29:30.564Z,82.20
2017-08-15T07:30:37.410Z,82.35
2017-08-15T07:31:45.096Z,82.12
2017-08-15T07:32:20.419Z,82.05
2017-08-15T07:32:55.795Z,81.98
2017-08-15T07:33:31.083Z,81.76
2017-08-15T07:34:06.428Z,81.85
2017-08-15T07:34:41.756Z,81.79
2017-08-15T07:35:18.684Z,82.02
2017-08-15T07:35:54.011Z,81.86
2017-08-15T07:36:29.335Z,81.63
2017-08-15T07:37:04.667Z,81.48
2017-08-15T07:37:40.015Z,81.32
2017-08-15T07:38:15.336Z,81.24
2017-08-15T07:38:50.673Z,81.43
2017-08-15T07:39:26.014Z,81.69
2017-08-15T07:40:01.331Z,81.62
2017-08-15T07:40:36.696Z,81.32
2017-08-15T07:41:11.987Z,81.41
2017-08-15T07:41:47.319Z,81.45
2017-08-15T07:42:22.657Z,81.41
2017-08-15T07:42:58.004Z,81.06
2017-08-15T07:43:33.307Z,80.79
2017-08-15T07:44:08.644Z,81.20
2017-08-15T07:44:43.969Z,80.78
2017-08-15T07:45:19.307Z,80.76
2017-08-15T07:45:54.644Z,80.17